Fire Weather Observation
Issued by NWS Grand Junction, CO

Home | Current Version | Previous Version | Graphics & Text | Print | Product List | Glossary On
Versions: 1 2 3 4 5 6 7 8 9 10 11 12 13 14 15 16 17 18 19 20 21 22 23 24 25 26 27 28 29
000
SHUS65 KGJT 202013
FWOGJT

DAILY FIRE WEATHER OBSERVATION
NATIONAL WEATHER SERVICE GRAND JUNCTION CO
212 PM MDT TUE JUN 20 2017

STATE OF THE WEATHER (W)               0
DRY BULB TEMPERATURE                   96   DEGREES FAHRENHEIT
RELATIVE HUMIDITY (RH)                 11   PERCENT
LIGHTNING ACTIVITY LEVEL
  (LAL - MIDNIGHT TO 2 PM)             1
WIND DIRECTION                         C    DEGREES (C IF CALM)
WIND SPEED                             0    MPH
MAX TEMP (2 PM - 2 PM)                 96   DEGREES FAHRENHEIT
MIN TEMP (2 PM - 2 PM)                 63   DEGREES FAHRENHEIT
MAX RH (2 PM - 2 PM)                   37   PERCENT
MIN RH (2 PM - 2 PM)                   8    PERCENT
PCPN DURATION                          0.0  HOURS
PCPN AMT (2 PM - 2 PM)                 0.0  INCHES
LAL (2 PM - 2 PM)                      1

$$

METAR KGJT 201953Z VRB03KT 10SM CLR 36/00 A3010 RMK AO2 SLP109
      T03560000



USA.gov is the U.S. government's official web portal to all federal, state and local government web resources and services.